sensor_id;sensor_type;location;lat;lon;timestamp;temperature;humidity
48666;DHT22;34452;50.796;4.994;2023-05-07T00:01:46;14.00;99.90
48666;DHT22;34452;50.796;4.994;2023-05-07T00:04:13;14.10;99.90
48666;DHT22;34452;50.796;4.994;2023-05-07T00:06:39;14.10;99.90
48666;DHT22;34452;50.796;4.994;2023-05-07T00:09:06;14.20;99.90
48666;DHT22;34452;50.796;4.994;2023-05-07T00:11:32;14.20;99.90
48666;DHT22;34452;50.796;4.994;2023-05-07T00:13:58;14.20;99.90
48666;DHT22;34452;50.796;4.994;2023-05-07T00:16:24;14.10;99.90
48666;DHT22;34452;50.796;4.994;2023-05-07T00:18:49;14.20;99.90
48666;DHT22;34452;50.796;4.994;2023-05-07T00:21:15;14.20;99.90
48666;DHT22;34452;50.796;4.994;2023-05-07T00:23:41;14.20;99.90
48666;DHT22;34452;50.796;4.994;2023-05-07T00:26:07;14.20;99.90
48666;DHT22;34452;50.796;4.994;2023-05-07T00:28:33;14.20;99.90
48666;DHT22;34452;50.796;4.994;2023-05-07T00:30:59;14.20;99.90
48666;DHT22;34452;50.796;4.994;2023-05-07T00:33:24;14.20;99.90
48666;DHT22;34452;50.796;4.994;2023-05-07T00:35:52;14.20;99.90
48666;DHT22;34452;50.796;4.994;2023-05-07T00:38:18;14.20;99.90
48666;DHT22;34452;50.796;4.994;2023-05-07T00:40:43;14.20;99.90
48666;DHT22;34452;50.796;4.994;2023-05-07T00:43:09;14.20;99.90
48666;DHT22;34452;50.796;4.994;2023-05-07T00:45:35;14.20;99.90
48666;DHT22;34452;50.796;4.994;2023-05-07T00:48:01;14.30;99.90
48666;DHT22;34452;50.796;4.994;2023-05-07T00:50:28;14.30;99.90
48666;DHT22;34452;50.796;4.994;2023-05-07T00:52:53;14.30;99.90
48666;DHT22;34452;50.796;4.994;2023-05-07T00:55:21;14.20;99.90
48666;DHT22;34452;50.796;4.994;2023-05-07T00:57:47;14.20;99.90
48666;DHT22;34452;50.796;4.994;2023-05-07T01:00:14;14.10;99.90
48666;DHT22;34452;50.796;4.994;2023-05-07T01:02:40;14.20;99.90
48666;DHT22;34452;50.796;4.994;2023-05-07T01:05:07;14.10;99.90
48666;DHT22;34452;50.796;4.994;2023-05-07T01:07:35;14.10;99.90
48666;DHT22;34452;50.796;4.994;2023-05-07T01:10:02;14.00;99.90
48666;DHT22;34452;50.796;4.994;2023-05-07T01:12:28;14.00;99.90
48666;DHT22;34452;50.796;4.994;2023-05-07T01:14:55;13.90;99.90
48666;DHT22;34452;50.796;4.994;2023-05-07T01:17:20;13.80;99.90
48666;DHT22;34452;50.796;4.994;2023-05-07T01:19:46;13.80;99.90
48666;DHT22;34452;50.796;4.994;2023-05-07T01:22:15;13.70;99.90
48666;DHT22;34452;50.796;4.994;2023-05-07T01:24:42;13.70;99.90
48666;DHT22;34452;50.796;4.994;2023-05-07T01:27:08;13.60;99.90
48666;DHT22;34452;50.796;4.994;2023-05-07T01:29:34;13.60;99.90
48666;DHT22;34452;50.796;4.994;2023-05-07T01:32:01;13.70;99.90
48666;DHT22;34452;50.796;4.994;2023-05-07T01:34:31;13.70;99.90
48666;DHT22;34452;50.796;4.994;2023-05-07T01:36:58;13.70;99.90
48666;DHT22;34452;50.796;4.994;2023-05-07T01:39:25;13.70;99.90
48666;DHT22;34452;50.796;4.994;2023-05-07T01:42:03;13.70;99.90
48666;DHT22;34452;50.796;4.994;2023-05-07T01:44:48;13.70;99.90
48666;DHT22;34452;50.796;4.994;2023-05-07T01:47:14;13.60;99.90
48666;DHT22;34452;50.796;4.994;2023-05-07T01:49:42;13.60;99.90
48666;DHT22;34452;50.796;4.994;2023-05-07T01:52:09;13.60;99.90
48666;DHT22;34452;50.796;4.994;2023-05-07T01:54:35;13.60;99.90
48666;DHT22;34452;50.796;4.994;2023-05-07T01:57:01;13.60;99.90
48666;DHT22;34452;50.796;4.994;2023-05-07T01:59:27;13.60;99.90
48666;DHT22;34452;50.796;4.994;2023-05-07T02:01:52;13.60;99.90
48666;DHT22;34452;50.796;4.994;2023-05-07T02:04:18;13.60;99.90
48666;DHT22;34452;50.796;4.994;2023-05-07T02:06:44;13.60;99.90
48666;DHT22;34452;50.796;4.994;2023-05-07T02:09:11;13.60;99.90
48666;DHT22;34452;50.796;4.994;2023-05-07T02:11:37;13.60;99.90
48666;DHT22;34452;50.796;4.994;2023-05-07T02:14:02;13.60;99.90
48666;DHT22;34452;50.796;4.994;2023-05-07T02:16:28;13.60;99.90
48666;DHT22;34452;50.796;4.994;2023-05-07T02:18:54;13.60;99.90
48666;DHT22;34452;50.796;4.994;2023-05-07T02:21:20;13.60;99.90
48666;DHT22;34452;50.796;4.994;2023-05-07T02:23:46;13.60;99.90
48666;DHT22;34452;50.796;4.994;2023-05-07T02:26:11;13.70;99.90
48666;DHT22;34452;50.796;4.994;2023-05-07T02:28:37;13.70;99.90
48666;DHT22;34452;50.796;4.994;2023-05-07T02:31:03;13.70;99.90
48666;DHT22;34452;50.796;4.994;2023-05-07T02:33:29;13.70;99.90
48666;DHT22;34452;50.796;4.994;2023-05-07T02:35:56;13.70;99.90
48666;DHT22;34452;50.796;4.994;2023-05-07T02:38:22;13.70;99.90
48666;DHT22;34452;50.796;4.994;2023-05-07T02:40:48;13.70;99.90
48666;DHT22;34452;50.796;4.994;2023-05-07T02:43:14;13.70;99.90
48666;DHT22;34452;50.796;4.994;2023-05-07T02:45:40;13.70;99.90
48666;DHT22;34452;50.796;4.994;2023-05-07T02:48:06;13.70;99.90
48666;DHT22;34452;50.796;4.994;2023-05-07T02:50:32;13.60;99.90
48666;DHT22;34452;50.796;4.994;2023-05-07T02:52:58;13.60;99.90
48666;DHT22;34452;50.796;4.994;2023-05-07T02:55:24;13.60;99.90
48666;DHT22;34452;50.796;4.994;2023-05-07T02:57:50;13.60;99.90
48666;DHT22;34452;50.796;4.994;2023-05-07T03:00:18;13.70;99.90
48666;DHT22;34452;50.796;4.994;2023-05-07T03:02:44;13.70;99.90
48666;DHT22;34452;50.796;4.994;2023-05-07T03:05:10;13.60;99.90
48666;DHT22;34452;50.796;4.994;2023-05-07T03:07:37;13.70;99.90
48666;DHT22;34452;50.796;4.994;2023-05-07T03:10:04;13.70;99.90
48666;DHT22;34452;50.796;4.994;2023-05-07T03:12:30;13.60;99.90
48666;DHT22;34452;50.796;4.994;2023-05-07T03:14:56;13.60;99.90
48666;DHT22;34452;50.796;4.994;2023-05-07T03:17:22;13.60;99.90
48666;DHT22;34452;50.796;4.994;2023-05-07T03:19:48;13.60;99.90
48666;DHT22;34452;50.796;4.994;2023-05-07T03:22:14;13.60;99.90
48666;DHT22;34452;50.796;4.994;2023-05-07T03:24:40;13.60;99.90
48666;DHT22;34452;50.796;4.994;2023-05-07T03:27:05;13.50;99.90
48666;DHT22;34452;50.796;4.994;2023-05-07T03:29:31;13.60;99.90
48666;DHT22;34452;50.796;4.994;2023-05-07T03:31:57;13.60;99.90
48666;DHT22;34452;50.796;4.994;2023-05-07T03:34:23;13.60;99.90
48666;DHT22;34452;50.796;4.994;2023-05-07T03:36:49;13.60;99.90
48666;DHT22;34452;50.796;4.994;2023-05-07T03:39:15;13.50;99.90
48666;DHT22;34452;50.796;4.994;2023-05-07T03:41:40;13.40;99.90
48666;DHT22;34452;50.796;4.994;2023-05-07T03:44:06;13.40;99.90
48666;DHT22;34452;50.796;4.994;2023-05-07T03:46:33;13.40;99.90
48666;DHT22;34452;50.796;4.994;2023-05-07T03:48:59;13.40;99.90
48666;DHT22;34452;50.796;4.994;2023-05-07T03:51:25;13.40;99.90
48666;DHT22;34452;50.796;4.994;2023-05-07T03:53:51;13.40;99.90
48666;DHT22;34452;50.796;4.994;2023-05-07T03:56:19;13.50;99.90
48666;DHT22;34452;50.796;4.994;2023-05-07T03:58:44;13.50;99.90
48666;DHT22;34452;50.796;4.994;2023-05-07T04:01:10;13.50;99.90
48666;DHT22;34452;50.796;4.994;2023-05-07T04:03:36;13.60;99.90
48666;DHT22;34452;50.796;4.994;2023-05-07T04:06:02;13.60;99.90
48666;DHT22;34452;50.796;4.994;2023-05-07T04:08:28;13.60;99.90
48666;DHT22;34452;50.796;4.994;2023-05-07T04:10:56;13.50;99.90
48666;DHT22;34452;50.796;4.994;2023-05-07T04:13:22;13.50;99.90
48666;DHT22;34452;50.796;4.994;2023-05-07T04:15:47;13.60;99.90
48666;DHT22;34452;50.796;4.994;2023-05-07T04:18:14;13.60;99.90
48666;DHT22;34452;50.796;4.994;2023-05-07T04:20:40;13.50;99.90
48666;DHT22;34452;50.796;4.994;2023-05-07T04:23:06;13.60;99.90
48666;DHT22;34452;50.796;4.994;2023-05-07T04:25:32;13.60;99.90
48666;DHT22;34452;50.796;4.994;2023-05-07T04:27:58;13.60;99.90
48666;DHT22;34452;50.796;4.994;2023-05-07T04:30:24;13.60;99.90
48666;DHT22;34452;50.796;4.994;2023-05-07T04:32:50;13.60;99.90
48666;DHT22;34452;50.796;4.994;2023-05-07T04:35:16;13.50;99.90
48666;DHT22;34452;50.796;4.994;2023-05-07T04:37:42;13.50;99.90
48666;DHT22;34452;50.796;4.994;2023-05-07T04:40:08;13.50;99.90
48666;DHT22;34452;50.796;4.994;2023-05-07T04:42:34;13.50;99.90
48666;DHT22;34452;50.796;4.994;2023-05-07T04:45:01;13.50;99.90
48666;DHT22;34452;50.796;4.994;2023-05-07T04:47:27;13.50;99.90
48666;DHT22;34452;50.796;4.994;2023-05-07T04:49:53;13.60;99.90
48666;DHT22;34452;50.796;4.994;2023-05-07T04:52:19;13.70;99.90
48666;DHT22;34452;50.796;4.994;2023-05-07T04:54:44;13.70;99.90
48666;DHT22;34452;50.796;4.994;2023-05-07T04:57:10;13.70;99.90
48666;DHT22;34452;50.796;4.994;2023-05-07T04:59:36;13.70;99.90
48666;DHT22;34452;50.796;4.994;2023-05-07T05:02:02;13.70;99.90
48666;DHT22;34452;50.796;4.994;2023-05-07T05:04:29;13.70;99.90
48666;DHT22;34452;50.796;4.994;2023-05-07T05:06:56;13.70;99.90
48666;DHT22;34452;50.796;4.994;2023-05-07T05:09:22;13.80;99.90
48666;DHT22;34452;50.796;4.994;2023-05-07T05:11:47;13.80;99.90
48666;DHT22;34452;50.796;4.994;2023-05-07T05:14:13;13.80;99.90
48666;DHT22;34452;50.796;4.994;2023-05-07T05:16:39;13.90;99.90
48666;DHT22;34452;50.796;4.994;2023-05-07T05:19:05;14.00;99.90
48666;DHT22;34452;50.796;4.994;2023-05-07T05:21:31;13.90;99.90
48666;DHT22;34452;50.796;4.994;2023-05-07T05:23:58;14.00;99.90
48666;DHT22;34452;50.796;4.994;2023-05-07T05:26:24;14.10;99.90
48666;DHT22;34452;50.796;4.994;2023-05-07T05:28:49;14.20;99.90
48666;DHT22;34452;50.796;4.994;2023-05-07T05:31:16;14.30;99.90
48666;DHT22;34452;50.796;4.994;2023-05-07T05:33:42;14.40;99.90
48666;DHT22;34452;50.796;4.994;2023-05-07T05:36:10;14.50;99.90
48666;DHT22;34452;50.796;4.994;2023-05-07T05:38:36;14.50;99.90
48666;DHT22;34452;50.796;4.994;2023-05-07T05:41:02;14.50;99.90
48666;DHT22;34452;50.796;4.994;2023-05-07T05:43:27;14.60;99.90
48666;DHT22;34452;50.796;4.994;2023-05-07T05:45:55;14.60;99.90
48666;DHT22;34452;50.796;4.994;2023-05-07T05:48:20;14.70;99.90
48666;DHT22;34452;50.796;4.994;2023-05-07T05:50:46;14.80;99.90
48666;DHT22;34452;50.796;4.994;2023-05-07T05:53:12;14.80;99.90
48666;DHT22;34452;50.796;4.994;2023-05-07T05:55:37;14.80;99.90
48666;DHT22;34452;50.796;4.994;2023-05-07T05:58:03;14.80;99.90
48666;DHT22;34452;50.796;4.994;2023-05-07T06:00:29;14.80;99.90
48666;DHT22;34452;50.796;4.994;2023-05-07T06:02:55;14.80;99.90
48666;DHT22;34452;50.796;4.994;2023-05-07T06:05:21;14.90;99.90
48666;DHT22;34452;50.796;4.994;2023-05-07T06:07:47;14.90;99.90
48666;DHT22;34452;50.796;4.994;2023-05-07T06:10:12;14.90;99.90
48666;DHT22;34452;50.796;4.994;2023-05-07T06:12:39;15.00;99.90
48666;DHT22;34452;50.796;4.994;2023-05-07T06:15:06;15.00;99.90
48666;DHT22;34452;50.796;4.994;2023-05-07T06:17:31;15.10;99.90
48666;DHT22;34452;50.796;4.994;2023-05-07T06:19:57;15.10;99.90
48666;DHT22;34452;50.796;4.994;2023-05-07T06:22:23;15.20;99.90
48666;DHT22;34452;50.796;4.994;2023-05-07T06:24:49;15.20;99.90
48666;DHT22;34452;50.796;4.994;2023-05-07T06:27:14;15.30;99.90
48666;DHT22;34452;50.796;4.994;2023-05-07T06:29:40;15.30;99.90
48666;DHT22;34452;50.796;4.994;2023-05-07T06:32:09;15.30;99.90
48666;DHT22;34452;50.796;4.994;2023-05-07T06:34:35;15.40;99.90
48666;DHT22;34452;50.796;4.994;2023-05-07T06:37:02;15.50;99.90
48666;DHT22;34452;50.796;4.994;2023-05-07T06:39:27;15.60;99.90
48666;DHT22;34452;50.796;4.994;2023-05-07T06:41:54;15.60;99.90
48666;DHT22;34452;50.796;4.994;2023-05-07T06:44:19;15.60;99.90
48666;DHT22;34452;50.796;4.994;2023-05-07T06:46:45;15.70;99.90
48666;DHT22;34452;50.796;4.994;2023-05-07T06:49:12;15.70;99.90
48666;DHT22;34452;50.796;4.994;2023-05-07T06:51:38;15.80;99.90
48666;DHT22;34452;50.796;4.994;2023-05-07T06:54:04;15.90;99.90
48666;DHT22;34452;50.796;4.994;2023-05-07T06:56:31;15.90;99.90
48666;DHT22;34452;50.796;4.994;2023-05-07T06:58:57;16.00;99.90
48666;DHT22;34452;50.796;4.994;2023-05-07T07:01:23;16.00;99.90
48666;DHT22;34452;50.796;4.994;2023-05-07T07:03:48;16.10;99.90
48666;DHT22;34452;50.796;4.994;2023-05-07T07:06:14;16.10;99.90
48666;DHT22;34452;50.796;4.994;2023-05-07T07:08:40;16.10;99.90
48666;DHT22;34452;50.796;4.994;2023-05-07T07:11:06;16.10;99.90
48666;DHT22;34452;50.796;4.994;2023-05-07T07:13:32;16.10;99.90
48666;DHT22;34452;50.796;4.994;2023-05-07T07:15:58;16.20;99.90
48666;DHT22;34452;50.796;4.994;2023-05-07T07:18:23;16.20;99.90
48666;DHT22;34452;50.796;4.994;2023-05-07T07:20:49;16.30;99.90
48666;DHT22;34452;50.796;4.994;2023-05-07T07:23:15;16.40;99.90
48666;DHT22;34452;50.796;4.994;2023-05-07T07:25:41;16.50;99.90
48666;DHT22;34452;50.796;4.994;2023-05-07T07:28:06;16.50;99.90
48666;DHT22;34452;50.796;4.994;2023-05-07T07:30:33;16.60;99.90
48666;DHT22;34452;50.796;4.994;2023-05-07T07:33:00;16.70;99.90
48666;DHT22;34452;50.796;4.994;2023-05-07T07:35:29;16.80;99.90
48666;DHT22;34452;50.796;4.994;2023-05-07T07:37:54;16.90;99.90
48666;DHT22;34452;50.796;4.994;2023-05-07T07:40:20;17.00;99.90
48666;DHT22;34452;50.796;4.994;2023-05-07T07:42:46;16.90;99.90
48666;DHT22;34452;50.796;4.994;2023-05-07T07:45:11;17.00;99.90
48666;DHT22;34452;50.796;4.994;2023-05-07T07:47:39;17.10;99.90
48666;DHT22;34452;50.796;4.994;2023-05-07T07:50:06;17.20;99.90
48666;DHT22;34452;50.796;4.994;2023-05-07T07:52:31;17.30;99.90
48666;DHT22;34452;50.796;4.994;2023-05-07T07:54:57;17.30;99.90
48666;DHT22;34452;50.796;4.994;2023-05-07T07:57:23;17.40;99.90
48666;DHT22;34452;50.796;4.994;2023-05-07T07:59:49;17.50;99.90
48666;DHT22;34452;50.796;4.994;2023-05-07T08:02:15;17.50;99.90
48666;DHT22;34452;50.796;4.994;2023-05-07T08:04:42;17.60;99.90
48666;DHT22;34452;50.796;4.994;2023-05-07T08:07:09;17.70;99.90
48666;DHT22;34452;50.796;4.994;2023-05-07T08:09:36;17.80;99.90
48666;DHT22;34452;50.796;4.994;2023-05-07T08:12:02;17.90;99.90
48666;DHT22;34452;50.796;4.994;2023-05-07T08:14:28;18.00;99.90
48666;DHT22;34452;50.796;4.994;2023-05-07T08:16:54;18.10;99.90
48666;DHT22;34452;50.796;4.994;2023-05-07T08:19:20;18.20;99.90
48666;DHT22;34452;50.796;4.994;2023-05-07T08:21:47;18.20;99.90
48666;DHT22;34452;50.796;4.994;2023-05-07T08:24:13;18.30;99.90
48666;DHT22;34452;50.796;4.994;2023-05-07T08:26:39;18.30;99.90
48666;DHT22;34452;50.796;4.994;2023-05-07T08:29:05;18.30;99.90
48666;DHT22;34452;50.796;4.994;2023-05-07T08:31:31;18.30;99.90
48666;DHT22;34452;50.796;4.994;2023-05-07T08:33:58;18.30;99.90
48666;DHT22;34452;50.796;4.994;2023-05-07T08:36:24;18.40;99.90
48666;DHT22;34452;50.796;4.994;2023-05-07T08:38:51;18.50;99.90
48666;DHT22;34452;50.796;4.994;2023-05-07T08:41:17;18.60;99.90
48666;DHT22;34452;50.796;4.994;2023-05-07T08:43:47;18.60;99.90
48666;DHT22;34452;50.796;4.994;2023-05-07T08:46:19;18.60;99.90
48666;DHT22;34452;50.796;4.994;2023-05-07T08:48:48;18.60;99.90
48666;DHT22;34452;50.796;4.994;2023-05-07T08:51:17;18.50;99.90
48666;DHT22;34452;50.796;4.994;2023-05-07T08:53:43;18.50;99.90
48666;DHT22;34452;50.796;4.994;2023-05-07T08:56:10;18.50;99.90
48666;DHT22;34452;50.796;4.994;2023-05-07T08:58:36;18.60;99.90
48666;DHT22;34452;50.796;4.994;2023-05-07T09:03:49;18.40;99.90
48666;DHT22;34452;50.796;4.994;2023-05-07T09:06:15;18.40;99.90
48666;DHT22;34452;50.796;4.994;2023-05-07T09:08:49;18.40;99.90
48666;DHT22;34452;50.796;4.994;2023-05-07T09:11:16;18.30;99.90
48666;DHT22;34452;50.796;4.994;2023-05-07T09:13:42;18.20;99.90
48666;DHT22;34452;50.796;4.994;2023-05-07T09:16:10;18.10;99.90
48666;DHT22;34452;50.796;4.994;2023-05-07T09:18:42;18.10;99.90
48666;DHT22;34452;50.796;4.994;2023-05-07T09:21:27;18.10;99.90
48666;DHT22;34452;50.796;4.994;2023-05-07T09:23:54;18.10;99.90
48666;DHT22;34452;50.796;4.994;2023-05-07T09:26:22;18.00;99.90
48666;DHT22;34452;50.796;4.994;2023-05-07T09:28:48;17.90;99.90
48666;DHT22;34452;50.796;4.994;2023-05-07T09:31:14;17.80;99.90
48666;DHT22;34452;50.796;4.994;2023-05-07T09:33:40;17.60;99.90
48666;DHT22;34452;50.796;4.994;2023-05-07T09:36:07;17.60;99.90
48666;DHT22;34452;50.796;4.994;2023-05-07T09:38:35;17.60;99.90
48666;DHT22;34452;50.796;4.994;2023-05-07T09:41:04;17.60;99.90
48666;DHT22;34452;50.796;4.994;2023-05-07T09:43:33;17.60;99.90
48666;DHT22;34452;50.796;4.994;2023-05-07T09:46:03;17.60;99.90
48666;DHT22;34452;50.796;4.994;2023-05-07T09:48:29;17.50;99.90
48666;DHT22;34452;50.796;4.994;2023-05-07T09:50:57;17.40;99.90
48666;DHT22;34452;50.796;4.994;2023-05-07T09:53:28;17.40;99.90
48666;DHT22;34452;50.796;4.994;2023-05-07T09:55:54;17.40;99.90
48666;DHT22;34452;50.796;4.994;2023-05-07T09:58:22;17.40;99.90
48666;DHT22;34452;50.796;4.994;2023-05-07T10:00:49;17.30;99.90
48666;DHT22;34452;50.796;4.994;2023-05-07T10:03:16;17.30;99.90
48666;DHT22;34452;50.796;4.994;2023-05-07T10:05:43;17.30;99.90
48666;DHT22;34452;50.796;4.994;2023-05-07T10:08:10;17.30;99.90
48666;DHT22;34452;50.796;4.994;2023-05-07T10:10:36;17.30;99.90
48666;DHT22;34452;50.796;4.994;2023-05-07T10:13:02;17.30;99.90
48666;DHT22;34452;50.796;4.994;2023-05-07T10:15:31;17.30;99.90
48666;DHT22;34452;50.796;4.994;2023-05-07T10:17:57;17.30;99.90
48666;DHT22;34452;50.796;4.994;2023-05-07T10:20:23;17.20;99.90
48666;DHT22;34452;50.796;4.994;2023-05-07T10:22:50;17.10;99.90
48666;DHT22;34452;50.796;4.994;2023-05-07T10:25:22;17.10;99.90
48666;DHT22;34452;50.796;4.994;2023-05-07T10:27:49;17.10;99.90
48666;DHT22;34452;50.796;4.994;2023-05-07T10:33:05;17.20;99.90
48666;DHT22;34452;50.796;4.994;2023-05-07T10:35:47;17.30;99.90
48666;DHT22;34452;50.796;4.994;2023-05-07T10:38:13;17.30;99.90
48666;DHT22;34452;50.796;4.994;2023-05-07T10:40:39;17.30;99.90
48666;DHT22;34452;50.796;4.994;2023-05-07T10:43:06;17.30;99.90
48666;DHT22;34452;50.796;4.994;2023-05-07T10:45:32;17.30;99.90
48666;DHT22;34452;50.796;4.994;2023-05-07T10:48:17;17.30;99.90
48666;DHT22;34452;50.796;4.994;2023-05-07T10:50:44;17.40;99.90
48666;DHT22;34452;50.796;4.994;2023-05-07T10:53:30;17.40;99.90
48666;DHT22;34452;50.796;4.994;2023-05-07T11:01:59;17.60;99.90
48666;DHT22;34452;50.796;4.994;2023-05-07T11:04:29;17.70;99.90
48666;DHT22;34452;50.796;4.994;2023-05-07T11:17:59;17.70;99.90
48666;DHT22;34452;50.796;4.994;2023-05-07T11:20:44;17.80;99.90
48666;DHT22;34452;50.796;4.994;2023-05-07T11:26:14;17.90;99.90
48666;DHT22;34452;50.796;4.994;2023-05-07T11:28:42;17.90;99.90
48666;DHT22;34452;50.796;4.994;2023-05-07T11:31:08;17.90;99.90
48666;DHT22;34452;50.796;4.994;2023-05-07T11:33:35;17.90;99.90
48666;DHT22;34452;50.796;4.994;2023-05-07T11:36:03;17.90;99.90
48666;DHT22;34452;50.796;4.994;2023-05-07T11:38:30;17.90;99.90
48666;DHT22;34452;50.796;4.994;2023-05-07T11:40:58;17.90;99.90
48666;DHT22;34452;50.796;4.994;2023-05-07T11:43:55;17.90;99.90
48666;DHT22;34452;50.796;4.994;2023-05-07T11:46:21;17.90;99.90
48666;DHT22;34452;50.796;4.994;2023-05-07T11:48:47;17.90;99.90
48666;DHT22;34452;50.796;4.994;2023-05-07T11:51:13;17.80;99.90
48666;DHT22;34452;50.796;4.994;2023-05-07T11:53:44;17.70;99.90
48666;DHT22;34452;50.796;4.994;2023-05-07T11:56:13;17.70;99.90
48666;DHT22;34452;50.796;4.994;2023-05-07T11:58:40;17.70;99.90
48666;DHT22;34452;50.796;4.994;2023-05-07T12:01:08;17.70;99.90
48666;DHT22;34452;50.796;4.994;2023-05-07T12:03:35;17.70;99.90
48666;DHT22;34452;50.796;4.994;2023-05-07T12:06:05;17.70;99.90
48666;DHT22;34452;50.796;4.994;2023-05-07T12:08:31;17.70;99.90
48666;DHT22;34452;50.796;4.994;2023-05-07T12:10:56;17.70;99.90
48666;DHT22;34452;50.796;4.994;2023-05-07T12:13:24;17.70;99.90
48666;DHT22;34452;50.796;4.994;2023-05-07T12:15:51;17.80;99.90
48666;DHT22;34452;50.796;4.994;2023-05-07T12:18:18;17.80;99.90
48666;DHT22;34452;50.796;4.994;2023-05-07T12:20:43;17.90;99.90
48666;DHT22;34452;50.796;4.994;2023-05-07T12:23:10;17.80;99.90
48666;DHT22;34452;50.796;4.994;2023-05-07T12:25:38;17.90;99.90
48666;DHT22;34452;50.796;4.994;2023-05-07T12:28:05;17.90;99.90
48666;DHT22;34452;50.796;4.994;2023-05-07T12:30:36;18.00;99.90
48666;DHT22;34452;50.796;4.994;2023-05-07T12:33:02;18.00;99.90
48666;DHT22;34452;50.796;4.994;2023-05-07T12:35:29;18.10;99.90
48666;DHT22;34452;50.796;4.994;2023-05-07T12:37:55;18.10;99.90
48666;DHT22;34452;50.796;4.994;2023-05-07T12:40:21;18.10;99.90
48666;DHT22;34452;50.796;4.994;2023-05-07T12:42:53;18.20;99.90
48666;DHT22;34452;50.796;4.994;2023-05-07T12:45:20;18.20;99.90
48666;DHT22;34452;50.796;4.994;2023-05-07T12:47:47;18.20;99.90
48666;DHT22;34452;50.796;4.994;2023-05-07T12:50:13;18.20;99.90
48666;DHT22;34452;50.796;4.994;2023-05-07T12:52:40;18.20;99.90
48666;DHT22;34452;50.796;4.994;2023-05-07T12:55:07;18.10;99.90
48666;DHT22;34452;50.796;4.994;2023-05-07T12:57:52;18.10;99.90
48666;DHT22;34452;50.796;4.994;2023-05-07T13:00:38;18.10;99.90
48666;DHT22;34452;50.796;4.994;2023-05-07T13:03:04;18.10;99.90
48666;DHT22;34452;50.796;4.994;2023-05-07T13:05:30;18.20;99.90
48666;DHT22;34452;50.796;4.994;2023-05-07T13:07:56;18.20;99.90
48666;DHT22;34452;50.796;4.994;2023-05-07T13:10:23;18.20;99.90
48666;DHT22;34452;50.796;4.994;2023-05-07T13:12:50;18.30;99.90
48666;DHT22;34452;50.796;4.994;2023-05-07T13:15:16;18.30;99.90
48666;DHT22;34452;50.796;4.994;2023-05-07T13:17:41;18.30;99.90
48666;DHT22;34452;50.796;4.994;2023-05-07T13:20:09;18.30;99.90
48666;DHT22;34452;50.796;4.994;2023-05-07T13:22:35;18.40;99.90
48666;DHT22;34452;50.796;4.994;2023-05-07T13:25:01;18.40;99.90
48666;DHT22;34452;50.796;4.994;2023-05-07T13:27:27;18.40;99.90
48666;DHT22;34452;50.796;4.994;2023-05-07T13:29:52;18.40;99.90
48666;DHT22;34452;50.796;4.994;2023-05-07T13:32:18;18.50;99.90
48666;DHT22;34452;50.796;4.994;2023-05-07T13:34:44;18.40;99.90
48666;DHT22;34452;50.796;4.994;2023-05-07T13:37:09;18.50;99.90
48666;DHT22;34452;50.796;4.994;2023-05-07T13:39:36;18.50;99.90
48666;DHT22;34452;50.796;4.994;2023-05-07T13:42:02;18.50;99.90
48666;DHT22;34452;50.796;4.994;2023-05-07T13:44:27;18.50;99.90
48666;DHT22;34452;50.796;4.994;2023-05-07T13:46:53;18.60;99.90
48666;DHT22;34452;50.796;4.994;2023-05-07T13:49:19;18.60;99.90
48666;DHT22;34452;50.796;4.994;2023-05-07T13:51:45;18.60;99.90
48666;DHT22;34452;50.796;4.994;2023-05-07T13:54:11;18.60;99.90
48666;DHT22;34452;50.796;4.994;2023-05-07T13:56:37;18.60;99.90
48666;DHT22;34452;50.796;4.994;2023-05-07T13:59:03;18.60;99.90
48666;DHT22;34452;50.796;4.994;2023-05-07T14:01:28;18.60;99.90
48666;DHT22;34452;50.796;4.994;2023-05-07T14:03:56;18.70;99.90
48666;DHT22;34452;50.796;4.994;2023-05-07T14:06:22;18.70;99.90
48666;DHT22;34452;50.796;4.994;2023-05-07T14:08:48;18.70;99.90
48666;DHT22;34452;50.796;4.994;2023-05-07T14:11:14;18.70;99.90
48666;DHT22;34452;50.796;4.994;2023-05-07T14:13:39;18.70;99.90
48666;DHT22;34452;50.796;4.994;2023-05-07T14:16:05;18.70;99.90
48666;DHT22;34452;50.796;4.994;2023-05-07T14:18:31;18.70;99.90
48666;DHT22;34452;50.796;4.994;2023-05-07T14:20:59;18.70;99.90
48666;DHT22;34452;50.796;4.994;2023-05-07T14:23:24;18.70;99.90
48666;DHT22;34452;50.796;4.994;2023-05-07T14:25:52;18.70;99.90
48666;DHT22;34452;50.796;4.994;2023-05-07T14:28:19;18.70;99.90
48666;DHT22;34452;50.796;4.994;2023-05-07T14:30:44;18.60;99.90
48666;DHT22;34452;50.796;4.994;2023-05-07T14:33:10;18.60;99.90
48666;DHT22;34452;50.796;4.994;2023-05-07T14:35:36;18.60;99.90
48666;DHT22;34452;50.796;4.994;2023-05-07T14:38:02;18.60;99.90
48666;DHT22;34452;50.796;4.994;2023-05-07T14:40:28;18.60;99.90
48666;DHT22;34452;50.796;4.994;2023-05-07T14:42:53;18.50;99.90
48666;DHT22;34452;50.796;4.994;2023-05-07T14:45:21;18.50;99.90
48666;DHT22;34452;50.796;4.994;2023-05-07T14:47:47;18.40;99.90
48666;DHT22;34452;50.796;4.994;2023-05-07T14:50:12;18.40;99.90
48666;DHT22;34452;50.796;4.994;2023-05-07T14:52:38;18.40;99.90
48666;DHT22;34452;50.796;4.994;2023-05-07T14:55:04;18.40;99.90
48666;DHT22;34452;50.796;4.994;2023-05-07T14:57:30;18.40;99.90
48666;DHT22;34452;50.796;4.994;2023-05-07T15:00:03;18.40;99.90
48666;DHT22;34452;50.796;4.994;2023-05-07T15:02:29;18.40;99.90
48666;DHT22;34452;50.796;4.994;2023-05-07T15:04:55;18.40;99.90
48666;DHT22;34452;50.796;4.994;2023-05-07T15:07:21;18.40;99.90
48666;DHT22;34452;50.796;4.994;2023-05-07T15:09:47;18.40;99.90
48666;DHT22;34452;50.796;4.994;2023-05-07T15:12:13;18.40;99.90
48666;DHT22;34452;50.796;4.994;2023-05-07T15:14:40;18.40;99.90
48666;DHT22;34452;50.796;4.994;2023-05-07T15:17:05;18.40;99.90
48666;DHT22;34452;50.796;4.994;2023-05-07T15:19:32;18.40;99.90
48666;DHT22;34452;50.796;4.994;2023-05-07T15:21:59;18.50;99.90
48666;DHT22;34452;50.796;4.994;2023-05-07T15:24:28;18.50;99.90
48666;DHT22;34452;50.796;4.994;2023-05-07T15:26:54;18.60;99.90
48666;DHT22;34452;50.796;4.994;2023-05-07T15:29:20;18.50;99.90
48666;DHT22;34452;50.796;4.994;2023-05-07T15:31:46;18.60;99.90
48666;DHT22;34452;50.796;4.994;2023-05-07T15:34:13;18.50;99.90
48666;DHT22;34452;50.796;4.994;2023-05-07T15:36:40;18.50;99.90
48666;DHT22;34452;50.796;4.994;2023-05-07T15:39:06;18.50;99.90
48666;DHT22;34452;50.796;4.994;2023-05-07T15:41:32;18.60;99.90
48666;DHT22;34452;50.796;4.994;2023-05-07T15:43:58;18.60;99.90
48666;DHT22;34452;50.796;4.994;2023-05-07T15:46:25;18.60;99.90
48666;DHT22;34452;50.796;4.994;2023-05-07T15:48:51;18.60;99.90
48666;DHT22;34452;50.796;4.994;2023-05-07T15:51:18;18.70;99.90
48666;DHT22;34452;50.796;4.994;2023-05-07T15:53:45;18.70;99.90